sensor_id;sensor_type;location;lat;lon;timestamp;pressure;altitude;pressure_sealevel;temperature
13219;BMP180;6674;49.152;11.918;2023-06-22T00:01:12;96250.41;;;20.51
13219;BMP180;6674;49.152;11.918;2023-06-22T00:03:39;96236.53;;;20.45
13219;BMP180;6674;49.152;11.918;2023-06-22T00:06:07;96246.75;;;20.47
13219;BMP180;6674;49.152;11.918;2023-06-22T00:08:34;96242.59;;;20.46
13219;BMP180;6674;49.152;11.918;2023-06-22T00:11:00;96227.41;;;20.43
13219;BMP180;6674;49.152;11.918;2023-06-22T00:13:27;96211.44;;;20.39
13219;BMP180;6674;49.152;11.918;2023-06-22T00:15:54;96214.06;;;20.34
13219;BMP180;6674;49.152;11.918;2023-06-22T00:18:20;96214.63;;;20.32
13219;BMP180;6674;49.152;11.918;2023-06-22T00:20:47;96222.75;;;20.30
13219;BMP180;6674;49.152;11.918;2023-06-22T00:23:15;96219.84;;;20.32
13219;BMP180;6674;49.152;11.918;2023-06-22T00:25:43;96217.75;;;20.29
13219;BMP180;6674;49.152;11.918;2023-06-22T00:28:09;96210.94;;;20.28
13219;BMP180;6674;49.152;11.918;2023-06-22T00:30:36;96212.03;;;20.27
13219;BMP180;6674;49.152;11.918;2023-06-22T00:33:02;96208.31;;;20.28
13219;BMP180;6674;49.152;11.918;2023-06-22T00:35:33;96208.31;;;20.28
13219;BMP180;6674;49.152;11.918;2023-06-22T00:38:00;96218.03;;;20.27
13219;BMP180;6674;49.152;11.918;2023-06-22T00:40:31;96205.72;;;20.28
13219;BMP180;6674;49.152;11.918;2023-06-22T00:42:57;96202.56;;;20.31
13219;BMP180;6674;49.152;11.918;2023-06-22T00:45:25;96202.03;;;20.29
13219;BMP180;6674;49.152;11.918;2023-06-22T00:47:52;96208.88;;;20.25
13219;BMP180;6674;49.152;11.918;2023-06-22T00:50:20;96201.31;;;20.23
13219;BMP180;6674;49.152;11.918;2023-06-22T00:52:51;96205.47;;;20.24
13219;BMP180;6674;49.152;11.918;2023-06-22T00:55:18;96198.41;;;20.25
13219;BMP180;6674;49.152;11.918;2023-06-22T00:57:47;96203.09;;;20.28
13219;BMP180;6674;49.152;11.918;2023-06-22T01:00:15;96202.31;;;20.27
13219;BMP180;6674;49.152;11.918;2023-06-22T01:02:43;96193.16;;;20.25
13219;BMP180;6674;49.152;11.918;2023-06-22T01:05:11;96191.31;;;20.25
13219;BMP180;6674;49.152;11.918;2023-06-22T01:07:42;96195.25;;;20.23
13219;BMP180;6674;49.152;11.918;2023-06-22T01:10:19;96190.81;;;20.23
13219;BMP180;6674;49.152;11.918;2023-06-22T01:12:52;96196.56;;;20.25
13219;BMP180;6674;49.152;11.918;2023-06-22T01:15:25;96187.41;;;20.23
13219;BMP180;6674;49.152;11.918;2023-06-22T01:17:56;96184.00;;;20.22
13219;BMP180;6674;49.152;11.918;2023-06-22T01:20:23;96189.50;;;20.21
13219;BMP180;6674;49.152;11.918;2023-06-22T01:23:02;96180.06;;;20.20
13219;BMP180;6674;49.152;11.918;2023-06-22T01:25:37;96184.81;;;20.13
13219;BMP180;6674;49.152;11.918;2023-06-22T01:28:20;96185.41;;;20.00
13219;BMP180;6674;49.152;11.918;2023-06-22T01:30:51;96187.50;;;20.03
13219;BMP180;6674;49.152;11.918;2023-06-22T01:33:29;96184.63;;;19.99
13219;BMP180;6674;49.152;11.918;2023-06-22T01:35:55;96182.28;;;19.98
13219;BMP180;6674;49.152;11.918;2023-06-22T01:38:22;96181.78;;;19.91
13219;BMP180;6674;49.152;11.918;2023-06-22T01:40:49;96192.25;;;19.91
13219;BMP180;6674;49.152;11.918;2023-06-22T01:43:16;96191.19;;;19.87
13219;BMP180;6674;49.152;11.918;2023-06-22T01:45:43;96196.97;;;19.89
13219;BMP180;6674;49.152;11.918;2023-06-22T01:48:11;96199.84;;;19.83
13219;BMP180;6674;49.152;11.918;2023-06-22T01:50:38;96190.44;;;19.87
13219;BMP180;6674;49.152;11.918;2023-06-22T01:53:04;96186.22;;;19.90
13219;BMP180;6674;49.152;11.918;2023-06-22T01:55:32;96191.75;;;19.89
13219;BMP180;6674;49.152;11.918;2023-06-22T01:57:58;96190.41;;;19.91
13219;BMP180;6674;49.152;11.918;2023-06-22T02:00:28;96190.16;;;19.93
13219;BMP180;6674;49.152;11.918;2023-06-22T02:03:00;96194.59;;;19.92
13219;BMP180;6674;49.152;11.918;2023-06-22T02:05:34;96188.06;;;19.90
13219;BMP180;6674;49.152;11.918;2023-06-22T02:08:06;96193.81;;;19.87
13219;BMP180;6674;49.152;11.918;2023-06-22T02:10:34;96206.41;;;19.85
13219;BMP180;6674;49.152;11.918;2023-06-22T02:13:03;96201.94;;;19.81
13219;BMP180;6674;49.152;11.918;2023-06-22T02:15:31;96204.81;;;19.79
13219;BMP180;6674;49.152;11.918;2023-06-22T02:17:57;96206.66;;;19.79
13219;BMP180;6674;49.152;11.918;2023-06-22T02:20:24;96205.63;;;19.80
13219;BMP180;6674;49.152;11.918;2023-06-22T02:22:52;96206.91;;;19.82
13219;BMP180;6674;49.152;11.918;2023-06-22T02:25:19;96201.41;;;19.84
13219;BMP180;6674;49.152;11.918;2023-06-22T02:27:46;96206.41;;;19.85
13219;BMP180;6674;49.152;11.918;2023-06-22T02:30:13;96203.78;;;19.85
13219;BMP180;6674;49.152;11.918;2023-06-22T02:32:41;96207.97;;;19.81
13219;BMP180;6674;49.152;11.918;2023-06-22T02:35:08;96202.19;;;19.79
13219;BMP180;6674;49.152;11.918;2023-06-22T02:37:35;96194.91;;;19.76
13219;BMP180;6674;49.152;11.918;2023-06-22T02:40:07;96190.44;;;19.72
13219;BMP180;6674;49.152;11.918;2023-06-22T02:42:34;96191.50;;;19.71
13219;BMP180;6674;49.152;11.918;2023-06-22T02:45:00;96194.38;;;19.69
13219;BMP180;6674;49.152;11.918;2023-06-22T02:47:27;96190.47;;;19.62
13219;BMP180;6674;49.152;11.918;2023-06-22T02:49:54;96187.09;;;19.61
13219;BMP180;6674;49.152;11.918;2023-06-22T02:52:20;96187.09;;;19.61
13219;BMP180;6674;49.152;11.918;2023-06-22T02:54:47;96195.97;;;19.65
13219;BMP180;6674;49.152;11.918;2023-06-22T02:57:15;96188.63;;;19.67
13219;BMP180;6674;49.152;11.918;2023-06-22T02:59:42;96192.00;;;19.68
13219;BMP180;6674;49.152;11.918;2023-06-22T03:02:09;96198.31;;;19.72
13219;BMP180;6674;49.152;11.918;2023-06-22T03:04:37;96191.50;;;19.71
13219;BMP180;6674;49.152;11.918;2023-06-22T03:07:04;96192.03;;;19.73
13219;BMP180;6674;49.152;11.918;2023-06-22T03:09:31;96186.50;;;19.74
13219;BMP180;6674;49.152;11.918;2023-06-22T03:11:58;96181.25;;;19.74
13219;BMP180;6674;49.152;11.918;2023-06-22T03:14:26;96179.44;;;19.75
13219;BMP180;6674;49.152;11.918;2023-06-22T03:16:52;96181.56;;;19.73
13219;BMP180;6674;49.152;11.918;2023-06-22T03:19:19;96181.56;;;19.73
13219;BMP180;6674;49.152;11.918;2023-06-22T03:21:46;96183.38;;;19.72
13219;BMP180;6674;49.152;11.918;2023-06-22T03:24:13;96180.78;;;19.67
13219;BMP180;6674;49.152;11.918;2023-06-22T03:26:40;96181.31;;;19.54
13219;BMP180;6674;49.152;11.918;2023-06-22T03:29:06;96172.22;;;19.42
13219;BMP180;6674;49.152;11.918;2023-06-22T03:31:34;96171.41;;;19.42
13219;BMP180;6674;49.152;11.918;2023-06-22T03:34:01;96181.09;;;19.36
13219;BMP180;6674;49.152;11.918;2023-06-22T03:36:27;96190.53;;;19.32
13219;BMP180;6674;49.152;11.918;2023-06-22T03:38:54;96179.53;;;19.30
13219;BMP180;6674;49.152;11.918;2023-06-22T03:41:21;96194.19;;;19.26
13219;BMP180;6674;49.152;11.918;2023-06-22T03:43:48;96197.31;;;19.28
13219;BMP180;6674;49.152;11.918;2023-06-22T03:46:15;96200.19;;;19.27
13219;BMP180;6674;49.152;11.918;2023-06-22T03:48:43;96196.56;;;19.18
13219;BMP180;6674;49.152;11.918;2023-06-22T03:51:10;96204.41;;;19.18
13219;BMP180;6674;49.152;11.918;2023-06-22T03:53:36;96208.06;;;19.12
13219;BMP180;6674;49.152;11.918;2023-06-22T03:56:03;96205.72;;;19.01
13219;BMP180;6674;49.152;11.918;2023-06-22T03:58:30;96209.09;;;19.01
13219;BMP180;6674;49.152;11.918;2023-06-22T04:00:58;96217.75;;;19.02
13219;BMP180;6674;49.152;11.918;2023-06-22T04:03:26;96216.41;;;19.04
13219;BMP180;6674;49.152;11.918;2023-06-22T04:05:54;96208.06;;;19.02
13219;BMP180;6674;49.152;11.918;2023-06-22T04:08:20;96215.38;;;19.05
13219;BMP180;6674;49.152;11.918;2023-06-22T04:10:47;96216.69;;;19.07
13219;BMP180;6674;49.152;11.918;2023-06-22T04:13:14;96216.41;;;19.14
13219;BMP180;6674;49.152;11.918;2023-06-22T04:15:41;96215.91;;;19.22
13219;BMP180;6674;49.152;11.918;2023-06-22T04:18:07;96217.47;;;19.28
13219;BMP180;6674;49.152;11.918;2023-06-22T04:20:34;96219.03;;;19.29
13219;BMP180;6674;49.152;11.918;2023-06-22T04:23:02;96207.53;;;19.30
13219;BMP180;6674;49.152;11.918;2023-06-22T04:25:29;96217.72;;;19.31
13219;BMP180;6674;49.152;11.918;2023-06-22T04:27:55;96214.84;;;19.33
13219;BMP180;6674;49.152;11.918;2023-06-22T04:30:22;96216.16;;;19.35
13219;BMP180;6674;49.152;11.918;2023-06-22T04:32:49;96220.59;;;19.40
13219;BMP180;6674;49.152;11.918;2023-06-22T04:35:21;96211.19;;;19.44
13219;BMP180;6674;49.152;11.918;2023-06-22T04:37:48;96218.47;;;19.51
13219;BMP180;6674;49.152;11.918;2023-06-22T04:40:21;96204.34;;;19.52
13219;BMP180;6674;49.152;11.918;2023-06-22T04:42:48;96208.53;;;19.58
13219;BMP180;6674;49.152;11.918;2023-06-22T04:45:19;96194.41;;;19.59
13219;BMP180;6674;49.152;11.918;2023-06-22T04:47:46;96184.47;;;19.66
13219;BMP180;6674;49.152;11.918;2023-06-22T04:50:12;96199.09;;;19.67
13219;BMP180;6674;49.152;11.918;2023-06-22T04:52:39;96190.97;;;19.69
13219;BMP180;6674;49.152;11.918;2023-06-22T04:55:07;96198.31;;;19.72
13219;BMP180;6674;49.152;11.918;2023-06-22T04:57:35;96194.34;;;19.74
13219;BMP180;6674;49.152;11.918;2023-06-22T05:00:05;96190.97;;;19.74
13219;BMP180;6674;49.152;11.918;2023-06-22T05:02:37;96202.75;;;19.76
13219;BMP180;6674;49.152;11.918;2023-06-22T05:05:05;96200.13;;;19.76
13219;BMP180;6674;49.152;11.918;2023-06-22T05:07:32;96200.13;;;19.81
13219;BMP180;6674;49.152;11.918;2023-06-22T05:09:59;96192.53;;;19.90
13219;BMP180;6674;49.152;11.918;2023-06-22T05:12:27;96188.56;;;19.92
13219;BMP180;6674;49.152;11.918;2023-06-22T05:14:55;96176.25;;;19.97
13219;BMP180;6674;49.152;11.918;2023-06-22T05:17:21;96172.81;;;20.02
13219;BMP180;6674;49.152;11.918;2023-06-22T05:19:48;96162.06;;;20.08
13219;BMP180;6674;49.152;11.918;2023-06-22T05:22:15;96168.34;;;20.12
13219;BMP180;6674;49.152;11.918;2023-06-22T05:24:42;96166.19;;;20.19
13219;BMP180;6674;49.152;11.918;2023-06-22T05:27:09;96166.97;;;20.25
13219;BMP180;6674;49.152;11.918;2023-06-22T05:29:36;96162.75;;;20.29
13219;BMP180;6674;49.152;11.918;2023-06-22T05:32:05;96172.44;;;20.33
13219;BMP180;6674;49.152;11.918;2023-06-22T05:34:32;96167.44;;;20.36
13219;BMP180;6674;49.152;11.918;2023-06-22T05:36:59;96173.41;;;20.42
13219;BMP180;6674;49.152;11.918;2023-06-22T05:39:26;96167.88;;;20.48
13219;BMP180;6674;49.152;11.918;2023-06-22T05:41:52;96168.34;;;20.55
13219;BMP180;6674;49.152;11.918;2023-06-22T05:44:19;96176.44;;;20.64
13219;BMP180;6674;49.152;11.918;2023-06-22T05:46:46;96170.34;;;20.73
13219;BMP180;6674;49.152;11.918;2023-06-22T05:49:15;96167.41;;;20.79
13219;BMP180;6674;49.152;11.918;2023-06-22T05:51:42;96169.75;;;20.86
13219;BMP180;6674;49.152;11.918;2023-06-22T05:54:09;96160.28;;;20.90
13219;BMP180;6674;49.152;11.918;2023-06-22T05:56:35;96171.78;;;20.94
13219;BMP180;6674;49.152;11.918;2023-06-22T05:59:02;96164.09;;;21.02
13219;BMP180;6674;49.152;11.918;2023-06-22T06:01:30;96163.78;;;21.09
13219;BMP180;6674;49.152;11.918;2023-06-22T06:04:01;96158.97;;;21.21
13219;BMP180;6674;49.152;11.918;2023-06-22T06:06:30;96151.81;;;21.26
13219;BMP180;6674;49.152;11.918;2023-06-22T06:08:57;96146.25;;;21.32
13219;BMP180;6674;49.152;11.918;2023-06-22T06:11:25;96148.84;;;21.37
13219;BMP180;6674;49.152;11.918;2023-06-22T06:13:51;96143.53;;;21.42
13219;BMP180;6674;49.152;11.918;2023-06-22T06:16:19;96151.88;;;21.49
13219;BMP180;6674;49.152;11.918;2023-06-22T06:18:45;96143.19;;;21.54
13219;BMP180;6674;49.152;11.918;2023-06-22T06:21:13;96153.28;;;21.65
13219;BMP180;6674;49.152;11.918;2023-06-22T06:23:41;96152.19;;;21.71
13219;BMP180;6674;49.152;11.918;2023-06-22T06:26:08;96158.88;;;21.82
13219;BMP180;6674;49.152;11.918;2023-06-22T06:28:35;96149.09;;;21.87
13219;BMP180;6674;49.152;11.918;2023-06-22T06:31:02;96155.28;;;21.96
13219;BMP180;6674;49.152;11.918;2023-06-22T06:33:32;96143.88;;;22.06
13219;BMP180;6674;49.152;11.918;2023-06-22T06:35:59;96140.63;;;22.13
13219;BMP180;6674;49.152;11.918;2023-06-22T06:38:27;96136.31;;;22.22
13219;BMP180;6674;49.152;11.918;2023-06-22T06:40:56;96137.28;;;22.31
13219;BMP180;6674;49.152;11.918;2023-06-22T06:43:23;96133.44;;;22.42
13219;BMP180;6674;49.152;11.918;2023-06-22T06:45:50;96127.53;;;22.50
13219;BMP180;6674;49.152;11.918;2023-06-22T06:48:18;96127.16;;;22.56
13219;BMP180;6674;49.152;11.918;2023-06-22T06:50:46;96129.63;;;22.66
13219;BMP180;6674;49.152;11.918;2023-06-22T06:53:14;96139.22;;;22.76
13219;BMP180;6674;49.152;11.918;2023-06-22T06:55:42;96132.84;;;22.82
13219;BMP180;6674;49.152;11.918;2023-06-22T06:58:13;96130.06;;;22.92
13219;BMP180;6674;49.152;11.918;2023-06-22T07:00:41;96131.47;;;23.02
13219;BMP180;6674;49.152;11.918;2023-06-22T07:03:09;96134.78;;;23.08
13219;BMP180;6674;49.152;11.918;2023-06-22T07:05:35;96134.91;;;23.16
13219;BMP180;6674;49.152;11.918;2023-06-22T07:08:03;96131.63;;;23.24
13219;BMP180;6674;49.152;11.918;2023-06-22T07:10:30;96119.84;;;23.35
13219;BMP180;6674;49.152;11.918;2023-06-22T07:12:56;96116.53;;;23.43
13219;BMP180;6674;49.152;11.918;2023-06-22T07:15:24;96113.91;;;23.56
13219;BMP180;6674;49.152;11.918;2023-06-22T07:17:51;96105.56;;;23.68
13219;BMP180;6674;49.152;11.918;2023-06-22T07:20:18;96099.22;;;23.82
13219;BMP180;6674;49.152;11.918;2023-06-22T07:22:45;96094.81;;;23.91
13219;BMP180;6674;49.152;11.918;2023-06-22T07:25:12;96108.28;;;24.03
13219;BMP180;6674;49.152;11.918;2023-06-22T07:27:44;96100.03;;;24.18
13219;BMP180;6674;49.152;11.918;2023-06-22T07:30:11;96099.81;;;24.27
13219;BMP180;6674;49.152;11.918;2023-06-22T07:32:40;96099.44;;;24.34
13219;BMP180;6674;49.152;11.918;2023-06-22T07:35:07;96097.06;;;24.46
13219;BMP180;6674;49.152;11.918;2023-06-22T07:37:34;96106.91;;;24.54
13219;BMP180;6674;49.152;11.918;2023-06-22T07:40:01;96106.66;;;24.64
13219;BMP180;6674;49.152;11.918;2023-06-22T07:42:31;96099.28;;;24.74
13219;BMP180;6674;49.152;11.918;2023-06-22T07:44:58;96099.66;;;24.81
13219;BMP180;6674;49.152;11.918;2023-06-22T07:47:24;96087.47;;;24.93
13219;BMP180;6674;49.152;11.918;2023-06-22T07:49:54;96088.94;;;24.99
13219;BMP180;6674;49.152;11.918;2023-06-22T07:52:23;96087.44;;;25.07
13219;BMP180;6674;49.152;11.918;2023-06-22T07:54:50;96083.63;;;25.21
13219;BMP180;6674;49.152;11.918;2023-06-22T07:57:17;96077.91;;;25.27
13219;BMP180;6674;49.152;11.918;2023-06-22T07:59:44;96080.94;;;25.43
13219;BMP180;6674;49.152;11.918;2023-06-22T08:02:11;96084.50;;;25.47
13219;BMP180;6674;49.152;11.918;2023-06-22T08:04:38;96084.72;;;25.59
13219;BMP180;6674;49.152;11.918;2023-06-22T08:07:06;96086.16;;;25.64
13219;BMP180;6674;49.152;11.918;2023-06-22T08:09:33;96080.44;;;25.79
13219;BMP180;6674;49.152;11.918;2023-06-22T08:11:59;96080.66;;;25.91
13219;BMP180;6674;49.152;11.918;2023-06-22T08:14:27;96064.81;;;26.00
13219;BMP180;6674;49.152;11.918;2023-06-22T08:16:53;96071.84;;;26.12
13219;BMP180;6674;49.152;11.918;2023-06-22T08:19:20;96076.09;;;26.30
13219;BMP180;6674;49.152;11.918;2023-06-22T08:21:47;96070.31;;;26.45
13219;BMP180;6674;49.152;11.918;2023-06-22T08:24:15;96072.81;;;26.58
13219;BMP180;6674;49.152;11.918;2023-06-22T08:26:41;96078.22;;;26.70
13219;BMP180;6674;49.152;11.918;2023-06-22T08:29:08;96075.91;;;26.77
13219;BMP180;6674;49.152;11.918;2023-06-22T08:31:37;96075.63;;;26.87
13219;BMP180;6674;49.152;11.918;2023-06-22T08:34:03;96071.69;;;26.93
13219;BMP180;6674;49.152;11.918;2023-06-22T08:36:30;96072.75;;;27.09
13219;BMP180;6674;49.152;11.918;2023-06-22T08:39:00;96076.13;;;27.26
13219;BMP180;6674;49.152;11.918;2023-06-22T08:41:29;96067.06;;;27.36
13219;BMP180;6674;49.152;11.918;2023-06-22T08:43:56;96065.16;;;27.44
13219;BMP180;6674;49.152;11.918;2023-06-22T08:46:23;96064.81;;;27.54
13219;BMP180;6674;49.152;11.918;2023-06-22T08:48:55;96061.72;;;27.52
13219;BMP180;6674;49.152;11.918;2023-06-22T08:51:22;96067.94;;;27.56
13219;BMP180;6674;49.152;11.918;2023-06-22T08:53:48;96072.09;;;27.66
13219;BMP180;6674;49.152;11.918;2023-06-22T08:56:15;96053.00;;;27.80
13219;BMP180;6674;49.152;11.918;2023-06-22T08:58:43;96064.41;;;27.81
13219;BMP180;6674;49.152;11.918;2023-06-22T09:01:10;96063.19;;;27.99
13219;BMP180;6674;49.152;11.918;2023-06-22T09:03:37;96062.66;;;28.14
13219;BMP180;6674;49.152;11.918;2023-06-22T09:06:04;96066.03;;;28.23
13219;BMP180;6674;49.152;11.918;2023-06-22T09:08:30;96075.41;;;28.40
13219;BMP180;6674;49.152;11.918;2023-06-22T09:10:57;96075.59;;;28.56
13219;BMP180;6674;49.152;11.918;2023-06-22T09:13:23;96068.03;;;28.66
13219;BMP180;6674;49.152;11.918;2023-06-22T09:15:52;96064.56;;;28.86
13219;BMP180;6674;49.152;11.918;2023-06-22T09:18:18;96061.19;;;28.97
13219;BMP180;6674;49.152;11.918;2023-06-22T09:20:45;96066.44;;;29.17
13219;BMP180;6674;49.152;11.918;2023-06-22T09:23:12;96051.00;;;29.31
13219;BMP180;6674;49.152;11.918;2023-06-22T09:25:38;96051.03;;;29.55
13219;BMP180;6674;49.152;11.918;2023-06-22T09:28:05;96044.03;;;29.62
13219;BMP180;6674;49.152;11.918;2023-06-22T09:30:32;96035.28;;;29.62
13219;BMP180;6674;49.152;11.918;2023-06-22T09:33:00;96030.88;;;29.78
13219;BMP180;6674;49.152;11.918;2023-06-22T09:35:27;96034.88;;;29.84
13219;BMP180;6674;49.152;11.918;2023-06-22T09:37:54;96031.66;;;29.90
13219;BMP180;6674;49.152;11.918;2023-06-22T09:40:20;96032.41;;;30.02
13219;BMP180;6674;49.152;11.918;2023-06-22T09:42:47;96034.81;;;30.19
13219;BMP180;6674;49.152;11.918;2023-06-22T09:45:13;96034.34;;;30.41
13219;BMP180;6674;49.152;11.918;2023-06-22T09:47:40;96036.59;;;30.54
13219;BMP180;6674;49.152;11.918;2023-06-22T09:50:09;96036.03;;;30.61
13219;BMP180;6674;49.152;11.918;2023-06-22T09:52:36;96032.97;;;30.74
13219;BMP180;6674;49.152;11.918;2023-06-22T09:55:04;96029.38;;;30.82
13219;BMP180;6674;49.152;11.918;2023-06-22T09:57:30;96021.31;;;30.79
13219;BMP180;6674;49.152;11.918;2023-06-22T09:59:57;96013.56;;;30.74
13219;BMP180;6674;49.152;11.918;2023-06-22T10:02:24;96012.34;;;30.98
13219;BMP180;6674;49.152;11.918;2023-06-22T10:04:50;96005.66;;;31.04
13219;BMP180;6674;49.152;11.918;2023-06-22T10:07:18;96004.97;;;31.23
13219;BMP180;6674;49.152;11.918;2023-06-22T10:09:45;96008.22;;;31.01
13219;BMP180;6674;49.152;11.918;2023-06-22T10:12:11;96002.63;;;31.21
13219;BMP180;6674;49.152;11.918;2023-06-22T10:14:38;96000.53;;;31.42
13219;BMP180;6674;49.152;11.918;2023-06-22T10:17:05;95997.94;;;31.30
13219;BMP180;6674;49.152;11.918;2023-06-22T10:19:32;95995.59;;;31.13
13219;BMP180;6674;49.152;11.918;2023-06-22T10:22:02;95992.94;;;31.44
13219;BMP180;6674;49.152;11.918;2023-06-22T10:24:30;95994.31;;;31.53
13219;BMP180;6674;49.152;11.918;2023-06-22T10:26:57;95986.38;;;31.72
13219;BMP180;6674;49.152;11.918;2023-06-22T10:29:24;95984.28;;;31.96
13219;BMP180;6674;49.152;11.918;2023-06-22T10:31:50;95977.84;;;31.82
13219;BMP180;6674;49.152;11.918;2023-06-22T10:34:17;95976.16;;;32.08
13219;BMP180;6674;49.152;11.918;2023-06-22T10:36:44;95972.66;;;32.23
13219;BMP180;6674;49.152;11.918;2023-06-22T10:39:12;95971.13;;;32.41
13219;BMP180;6674;49.152;11.918;2023-06-22T10:41:40;95965.22;;;32.32
13219;BMP180;6674;49.152;11.918;2023-06-22T10:44:07;95962.53;;;32.32
13219;BMP180;6674;49.152;11.918;2023-06-22T10:46:33;95957.28;;;32.35
13219;BMP180;6674;49.152;11.918;2023-06-22T10:49:00;95961.81;;;32.35
13219;BMP180;6674;49.152;11.918;2023-06-22T10:51:27;95946.25;;;32.37
13219;BMP180;6674;49.152;11.918;2023-06-22T10:53:53;95949.78;;;32.41
13219;BMP180;6674;49.152;11.918;2023-06-22T10:56:20;95949.19;;;32.51
13219;BMP180;6674;49.152;11.918;2023-06-22T10:58:48;95942.94;;;32.84
13219;BMP180;6674;49.152;11.918;2023-06-22T11:01:14;95947.38;;;33.18
13219;BMP180;6674;49.152;11.918;2023-06-22T11:03:41;95939.31;;;32.92
13219;BMP180;6674;49.152;11.918;2023-06-22T11:06:08;95931.34;;;32.96
13219;BMP180;6674;49.152;11.918;2023-06-22T11:08:34;95926.56;;;33.08
13219;BMP180;6674;49.152;11.918;2023-06-22T11:11:01;95923.94;;;33.34
13219;BMP180;6674;49.152;11.918;2023-06-22T11:13:27;95921.19;;;33.53
13219;BMP180;6674;49.152;11.918;2023-06-22T11:15:55;95921.75;;;33.39
13219;BMP180;6674;49.152;11.918;2023-06-22T11:18:22;95920.84;;;33.32
13219;BMP180;6674;49.152;11.918;2023-06-22T11:20:48;95919.91;;;33.21
13219;BMP180;6674;49.152;11.918;2023-06-22T11:23:15;95910.81;;;33.25
13219;BMP180;6674;49.152;11.918;2023-06-22T11:25:42;95903.88;;;33.21
13219;BMP180;6674;49.152;11.918;2023-06-22T11:28:09;95900.41;;;33.43
13219;BMP180;6674;49.152;11.918;2023-06-22T11:30:35;95902.38;;;33.46
13219;BMP180;6674;49.152;11.918;2023-06-22T11:33:04;95896.09;;;33.60
13219;BMP180;6674;49.152;11.918;2023-06-22T11:35:30;95901.13;;;33.65
13219;BMP180;6674;49.152;11.918;2023-06-22T11:37:59;95901.03;;;33.58
13219;BMP180;6674;49.152;11.918;2023-06-22T11:40:26;95906.84;;;33.64
13219;BMP180;6674;49.152;11.918;2023-06-22T11:42:52;95902.13;;;33.83
13219;BMP180;6674;49.152;11.918;2023-06-22T11:45:19;95895.47;;;33.70
13219;BMP180;6674;49.152;11.918;2023-06-22T11:47:46;95896.22;;;33.71
13219;BMP180;6674;49.152;11.918;2023-06-22T11:50:14;95891.91;;;33.89
13219;BMP180;6674;49.152;11.918;2023-06-22T11:52:41;95888.94;;;33.97
13219;BMP180;6674;49.152;11.918;2023-06-22T11:55:07;95892.06;;;33.99
13219;BMP180;6674;49.152;11.918;2023-06-22T11:57:36;95905.44;;;33.99
13219;BMP180;6674;49.152;11.918;2023-06-22T12:00:03;95904.19;;;33.93
13219;BMP180;6674;49.152;11.918;2023-06-22T12:02:40;95903.66;;;33.84
13219;BMP180;6674;49.152;11.918;2023-06-22T12:05:07;95910.03;;;34.02
13219;BMP180;6674;49.152;11.918;2023-06-22T12:07:35;95910.31;;;33.94
13219;BMP180;6674;49.152;11.918;2023-06-22T12:10:03;95917.31;;;33.76
13219;BMP180;6674;49.152;11.918;2023-06-22T12:12:30;95899.84;;;33.56
13219;BMP180;6674;49.152;11.918;2023-06-22T12:14:56;95904.59;;;33.69
13219;BMP180;6674;49.152;11.918;2023-06-22T12:17:23;95898.31;;;33.84
13219;BMP180;6674;49.152;11.918;2023-06-22T12:19:49;95892.44;;;34.01
13219;BMP180;6674;49.152;11.918;2023-06-22T12:22:16;95895.69;;;33.88
13219;BMP180;6674;49.152;11.918;2023-06-22T12:24:44;95885.47;;;33.93
13219;BMP180;6674;49.152;11.918;2023-06-22T12:27:10;95873.50;;;33.87
13219;BMP180;6674;49.152;11.918;2023-06-22T12:29:37;95875.84;;;33.89
13219;BMP180;6674;49.152;11.918;2023-06-22T12:32:04;95869.63;;;34.10
13219;BMP180;6674;49.152;11.918;2023-06-22T12:34:31;95865.09;;;34.18
13219;BMP180;6674;49.152;11.918;2023-06-22T12:36:57;95862.81;;;34.52
13219;BMP180;6674;49.152;11.918;2023-06-22T12:39:24;95858.31;;;34.63
13219;BMP180;6674;49.152;11.918;2023-06-22T12:41:52;95852.00;;;34.42
13219;BMP180;6674;49.152;11.918;2023-06-22T12:44:19;95852.16;;;34.59
13219;BMP180;6674;49.152;11.918;2023-06-22T12:46:45;95842.28;;;34.70
13219;BMP180;6674;49.152;11.918;2023-06-22T12:49:12;95836.09;;;34.59
13219;BMP180;6674;49.152;11.918;2023-06-22T12:51:40;95844.03;;;34.49
13219;BMP180;6674;49.152;11.918;2023-06-22T12:54:07;95843.41;;;34.62
13219;BMP180;6674;49.152;11.918;2023-06-22T12:56:34;95843.13;;;34.78
13219;BMP180;6674;49.152;11.918;2023-06-22T12:59:03;95840.44;;;34.74
13219;BMP180;6674;49.152;11.918;2023-06-22T13:01:29;95835.97;;;34.85
13219;BMP180;6674;49.152;11.918;2023-06-22T13:03:57;95832.81;;;34.80
13219;BMP180;6674;49.152;11.918;2023-06-22T13:06:24;95827.78;;;34.71
13219;BMP180;6674;49.152;11.918;2023-06-22T13:08:51;95830.88;;;34.77
13219;BMP180;6674;49.152;11.918;2023-06-22T13:11:17;95831.66;;;34.77
13219;BMP180;6674;49.152;11.918;2023-06-22T13:13:44;95823.47;;;34.60
13219;BMP180;6674;49.152;11.918;2023-06-22T13:16:13;95830.06;;;34.69
13219;BMP180;6674;49.152;11.918;2023-06-22T13:18:39;95825.47;;;34.70
13219;BMP180;6674;49.152;11.918;2023-06-22T13:21:06;95822.88;;;34.80
13219;BMP180;6674;49.152;11.918;2023-06-22T13:23:32;95818.53;;;34.65
13219;BMP180;6674;49.152;11.918;2023-06-22T13:25:59;95816.06;;;34.43
13219;BMP180;6674;49.152;11.918;2023-06-22T13:28:26;95808.06;;;34.50
13219;BMP180;6674;49.152;11.918;2023-06-22T13:30:54;95809.34;;;34.66
13219;BMP180;6674;49.152;11.918;2023-06-22T13:33:22;95799.53;;;34.38
13219;BMP180;6674;49.152;11.918;2023-06-22T13:35:50;95800.75;;;34.44
13219;BMP180;6674;49.152;11.918;2023-06-22T13:38:17;95788.59;;;34.56
13219;BMP180;6674;49.152;11.918;2023-06-22T13:40:43;95782.25;;;34.78
13219;BMP180;6674;49.152;11.918;2023-06-22T13:43:10;95775.28;;;34.67
13219;BMP180;6674;49.152;11.918;2023-06-22T13:45:37;95773.44;;;34.74
13219;BMP180;6674;49.152;11.918;2023-06-22T13:48:04;95770.63;;;34.57
13219;BMP180;6674;49.152;11.918;2023-06-22T13:50:35;95777.56;;;34.61
13219;BMP180;6674;49.152;11.918;2023-06-22T13:53:02;95782.84;;;34.54
13219;BMP180;6674;49.152;11.918;2023-06-22T13:55:28;95783.88;;;34.40
13219;BMP180;6674;49.152;11.918;2023-06-22T13:57:56;95789.75;;;34.55
13219;BMP180;6674;49.152;11.918;2023-06-22T14:00:22;95790.91;;;34.54
13219;BMP180;6674;49.152;11.918;2023-06-22T14:02:49;95781.69;;;34.55
13219;BMP180;6674;49.152;11.918;2023-06-22T14:05:16;95772.00;;;34.41
13219;BMP180;6674;49.152;11.918;2023-06-22T14:07:45;95765.97;;;34.50
13219;BMP180;6674;49.152;11.918;2023-06-22T14:10:11;95762.38;;;34.36